createdAt,value
2024-05-09T00:00:22.315Z,60.2757
2024-05-09T00:01:18.970Z,56.4189
2024-05-09T00:02:21.490Z,56.9245
2024-05-09T00:03:24.061Z,56.7712
2024-05-09T00:04:26.635Z,56.8895
2024-05-09T00:05:29.365Z,56.1326
2024-05-09T00:06:31.867Z,58.4836
2024-05-09T00:07:34.368Z,57.3131
2024-05-09T00:08:37.219Z,57.2649
2024-05-09T00:09:39.522Z,55.7681
2024-05-09T00:10:42.206Z,61.8527
2024-05-09T00:11:44.733Z,60.7923
2024-05-09T00:12:47.317Z,58.1965
2024-05-09T00:13:49.872Z,56.6477
2024-05-09T00:14:52.634Z,55.9915
2024-05-09T00:15:55.010Z,59.0325
2024-05-09T00:16:57.649Z,57.2291
2024-05-09T00:18:00.402Z,60.3416
2024-05-09T00:19:02.857Z,56.7924
2024-05-09T00:20:14.245Z,57.8332
2024-05-09T00:21:07.978Z,57.5082
2024-05-09T00:22:10.522Z,57.1442
2024-05-09T00:23:13.723Z,60.6209
2024-05-09T00:24:15.685Z,58.4581
2024-05-09T00:25:18.296Z,57.2239
2024-05-09T00:26:20.911Z,55.9311
2024-05-09T00:27:23.466Z,59.2264
2024-05-09T00:28:26.048Z,61.4863
2024-05-09T00:29:28.710Z,58.7984
2024-05-09T00:30:34.979Z,59.6040
2024-05-09T00:31:33.767Z,63.3288
2024-05-09T00:32:36.605Z,62.5733
2024-05-09T00:33:39.139Z,59.0973
2024-05-09T00:34:41.512Z,58.5861
2024-05-09T00:35:44.101Z,62.1069
2024-05-09T00:36:46.679Z,60.5520
2024-05-09T00:37:49.254Z,59.1284
2024-05-09T00:38:51.815Z,58.8126
2024-05-09T00:39:54.415Z,60.4365
2024-05-09T00:40:57.038Z,58.3802
2024-05-09T00:41:59.583Z,60.5655
2024-05-09T00:43:02.148Z,58.3101
2024-05-09T00:44:04.769Z,61.5717
2024-05-09T00:45:07.306Z,63.0458
2024-05-09T00:46:09.923Z,58.2632
2024-05-09T00:47:12.555Z,59.3863
2024-05-09T00:48:17.721Z,60.0430
2024-05-09T00:49:17.794Z,59.7440
2024-05-09T00:50:29.354Z,58.9795
2024-05-09T00:51:22.866Z,60.8472
2024-05-09T00:52:25.406Z,58.8217
2024-05-09T00:53:28.055Z,61.6544
2024-05-09T00:54:30.551Z,57.3590
2024-05-09T00:55:33.171Z,59.2956
2024-05-09T00:56:35.807Z,62.9395
2024-05-09T00:57:38.300Z,60.5627
2024-05-09T00:58:40.894Z,60.6965
2024-05-09T00:59:43.466Z,62.6772
2024-05-09T01:00:46.162Z,63.4583
2024-05-09T01:01:48.774Z,65.2680
2024-05-09T01:02:51.304Z,64.1781
2024-05-09T01:03:54.054Z,64.4748
2024-05-09T01:04:56.463Z,64.0877
2024-05-09T01:05:59.074Z,60.7115
2024-05-09T01:07:01.600Z,64.6391
2024-05-09T01:08:04.212Z,64.6352
2024-05-09T01:09:06.748Z,62.7187
2024-05-09T01:10:14.039Z,60.2779
2024-05-09T01:11:11.966Z,59.7104
2024-05-09T01:12:14.680Z,59.5753
2024-05-09T01:13:17.127Z,63.1153
2024-05-09T01:14:19.690Z,61.6323
2024-05-09T01:15:22.207Z,62.1114
2024-05-09T01:16:24.799Z,62.4584
2024-05-09T01:17:27.512Z,63.5350
2024-05-09T01:18:30.089Z,62.2101
2024-05-09T01:19:32.833Z,62.0974
2024-05-09T01:20:41.514Z,60.3790
2024-05-09T01:21:37.717Z,63.7043
2024-05-09T01:22:40.300Z,66.4164
2024-05-09T01:23:42.977Z,63.2669
2024-05-09T01:24:45.452Z,61.6508
2024-05-09T01:25:48.090Z,61.4366
2024-05-09T01:26:50.621Z,60.1662
2024-05-09T01:27:53.207Z,63.1703
2024-05-09T01:28:55.830Z,68.6315
2024-05-09T01:29:58.368Z,61.6248
2024-05-09T01:31:01.007Z,59.9648
2024-05-09T01:32:03.637Z,62.7406
2024-05-09T01:33:07.967Z,61.8285
2024-05-09T01:34:08.806Z,61.6308
2024-05-09T01:35:11.391Z,58.8811
2024-05-09T01:36:13.946Z,61.0667
2024-05-09T01:37:16.559Z,64.3026
2024-05-09T01:38:19.136Z,64.2538
2024-05-09T01:39:21.705Z,61.2952
2024-05-09T01:40:33.489Z,67.2392
2024-05-09T01:41:26.946Z,66.0485
2024-05-09T01:42:29.453Z,64.9052
2024-05-09T01:43:32.051Z,58.6925
2024-05-09T01:44:34.692Z,64.8702
2024-05-09T01:45:37.207Z,66.2206
2024-05-09T01:46:39.821Z,60.9183
2024-05-09T01:47:42.693Z,62.1522
2024-05-09T01:48:45.028Z,64.7154
2024-05-09T01:49:47.637Z,61.0605
2024-05-09T01:50:50.156Z,61.7308
2024-05-09T01:51:52.716Z,62.2001
2024-05-09T01:52:55.338Z,63.5323
2024-05-09T01:53:57.905Z,63.2432
2024-05-09T01:55:03.524Z,64.6328
2024-05-09T01:56:03.166Z,63.0031
2024-05-09T01:57:05.704Z,61.8218
2024-05-09T01:58:08.210Z,63.5603
2024-05-09T01:59:10.857Z,63.9495
2024-05-09T02:00:18.798Z,63.5945
2024-05-09T02:01:16.027Z,64.7287
2024-05-09T02:02:18.701Z,68.2373
2024-05-09T02:03:21.472Z,65.4971
2024-05-09T02:04:23.941Z,67.2596
2024-05-09T02:05:26.353Z,64.3525
2024-05-09T02:06:28.908Z,64.8660
2024-05-09T02:07:31.497Z,66.5376
2024-05-09T02:08:34.222Z,61.2443
2024-05-09T02:09:36.694Z,63.2462
2024-05-09T02:10:39.270Z,66.3732
2024-05-09T02:11:41.951Z,63.4595
2024-05-09T02:12:44.423Z,63.0953
2024-05-09T02:13:47.017Z,65.6953
2024-05-09T02:14:49.714Z,66.0148
2024-05-09T02:15:52.262Z,66.2795
2024-05-09T02:16:54.831Z,65.6072
2024-05-09T02:17:57.479Z,67.7531
2024-05-09T02:19:00.013Z,68.0047
2024-05-09T02:20:02.765Z,68.6912
2024-05-09T02:21:05.256Z,62.1376
2024-05-09T02:22:07.681Z,63.6338
2024-05-09T02:23:10.368Z,62.4856
2024-05-09T02:24:12.861Z,63.3878
2024-05-09T02:25:15.557Z,63.7827
2024-05-09T02:26:18.132Z,64.9535
2024-05-09T02:27:20.631Z,64.1745
2024-05-09T02:28:23.301Z,62.7955
2024-05-09T02:29:25.916Z,62.8772
2024-05-09T02:30:36.373Z,64.1706
2024-05-09T02:31:30.958Z,64.9585
2024-05-09T02:32:33.696Z,65.4688
2024-05-09T02:33:36.479Z,69.0278
2024-05-09T02:34:38.848Z,66.3702
2024-05-09T02:35:41.455Z,61.7337
2024-05-09T02:36:43.873Z,65.5738
2024-05-09T02:37:46.664Z,68.2936
2024-05-09T02:38:49.043Z,68.5127
2024-05-09T02:39:51.625Z,65.0505
2024-05-09T02:40:54.234Z,65.3286
2024-05-09T02:41:56.793Z,65.3355
2024-05-09T02:42:59.438Z,66.6308
2024-05-09T02:44:02.021Z,68.9746
2024-05-09T02:45:04.536Z,63.8341
2024-05-09T02:46:07.161Z,66.0467
2024-05-09T02:47:09.843Z,62.5203
2024-05-09T02:48:13.379Z,70.8061
2024-05-09T02:49:14.925Z,68.4380
2024-05-09T02:50:25.998Z,68.7794
2024-05-09T02:51:20.104Z,64.1881
2024-05-09T02:52:22.620Z,63.8685
2024-05-09T02:53:25.270Z,65.2847
2024-05-09T02:54:27.819Z,71.1079
2024-05-09T02:55:30.382Z,65.4349
2024-05-09T02:56:33.027Z,66.0606
2024-05-09T02:57:35.534Z,59.8663
2024-05-09T02:58:38.164Z,64.9659
2024-05-09T02:59:40.720Z,67.5905
2024-05-09T03:00:43.434Z,64.6086
2024-05-09T03:01:46.064Z,66.0394
2024-05-09T03:02:48.619Z,65.9707
2024-05-09T03:03:51.180Z,67.6244
2024-05-09T03:04:53.764Z,71.7114
2024-05-09T03:05:56.387Z,67.4549
2024-05-09T03:06:58.843Z,65.9205
2024-05-09T03:08:01.532Z,64.5030
2024-05-09T03:09:04.000Z,68.6603
2024-05-09T03:10:12.218Z,67.2371
2024-05-09T03:11:09.248Z,66.2203
2024-05-09T03:12:12.015Z,70.5464
2024-05-09T03:13:15.606Z,68.7655
2024-05-09T03:14:17.013Z,57.9450
2024-05-09T03:15:19.478Z,66.8135
2024-05-09T03:16:22.047Z,69.6787
2024-05-09T03:17:24.921Z,67.9638
2024-05-09T03:18:27.380Z,71.2828
2024-05-09T03:19:29.886Z,65.9696
2024-05-09T03:20:34.757Z,67.7685
2024-05-09T03:21:34.994Z,69.0857
2024-05-09T03:22:37.555Z,68.9062
2024-05-09T03:23:40.232Z,63.8045
2024-05-09T03:24:42.728Z,62.8250
2024-05-09T03:25:45.394Z,65.8955
2024-05-09T03:26:47.902Z,67.3787
2024-05-09T03:27:50.484Z,74.3425
2024-05-09T03:28:53.136Z,63.8520
2024-05-09T03:29:55.657Z,69.0754
2024-05-09T03:30:58.234Z,68.7529
2024-05-09T03:32:00.954Z,65.8888
2024-05-09T03:33:03.625Z,70.0232
2024-05-09T03:34:06.183Z,66.5115
2024-05-09T03:35:08.625Z,69.2151
2024-05-09T03:36:11.537Z,67.4024
2024-05-09T03:37:13.784Z,70.1622
2024-05-09T03:38:16.572Z,67.9082
2024-05-09T03:39:18.927Z,68.2394
2024-05-09T03:40:26.358Z,64.7769
2024-05-09T03:41:24.159Z,67.9471
2024-05-09T03:42:26.685Z,63.1075
2024-05-09T03:43:29.253Z,67.4109
2024-05-09T03:44:31.928Z,68.3819
2024-05-09T03:45:34.452Z,65.6023
2024-05-09T03:46:37.034Z,69.5444
2024-05-09T03:47:39.782Z,69.5678
2024-05-09T03:48:42.308Z,66.4750
2024-05-09T03:49:44.862Z,71.7873
2024-05-09T03:50:47.474Z,67.2259
2024-05-09T03:51:49.939Z,67.3839
2024-05-09T03:52:52.655Z,67.4557
2024-05-09T03:53:55.177Z,71.6258
2024-05-09T03:54:57.736Z,66.8449
2024-05-09T03:56:00.394Z,68.4228
2024-05-09T03:57:02.877Z,70.7935
2024-05-09T03:58:05.455Z,66.0461
2024-05-09T03:59:08.089Z,67.1401
2024-05-09T04:00:17.824Z,70.6734
2024-05-09T04:01:13.252Z,67.7191
2024-05-09T04:02:15.864Z,68.3991
2024-05-09T04:03:18.758Z,70.0460
2024-05-09T04:04:21.090Z,66.2841
2024-05-09T04:05:23.562Z,68.5213
2024-05-09T04:06:26.176Z,64.9260
2024-05-09T04:07:28.773Z,65.3934
2024-05-09T04:08:31.367Z,67.0770
2024-05-09T04:09:33.903Z,67.4293
2024-05-09T04:10:36.472Z,62.0106
2024-05-09T04:11:39.156Z,67.8029
2024-05-09T04:12:41.666Z,67.5504
2024-05-09T04:13:44.261Z,65.2604
2024-05-09T04:14:46.823Z,63.4677
2024-05-09T04:15:49.406Z,65.1271
2024-05-09T04:16:52.076Z,65.4664
2024-05-09T04:17:54.922Z,67.0944
2024-05-09T04:18:57.270Z,65.0903
2024-05-09T04:19:59.787Z,68.3901
2024-05-09T04:21:02.501Z,65.7599
2024-05-09T04:22:04.912Z,61.8135
2024-05-09T04:23:08.603Z,64.1432
2024-05-09T04:24:10.066Z,67.0830
2024-05-09T04:25:12.683Z,66.6730
2024-05-09T04:26:15.266Z,67.8504
2024-05-09T04:27:17.871Z,67.0341
2024-05-09T04:28:20.400Z,68.5677
2024-05-09T04:29:23.041Z,68.3382
2024-05-09T04:30:34.035Z,71.8066
2024-05-09T04:31:28.166Z,69.5222
2024-05-09T04:32:30.954Z,70.0649
2024-05-09T04:33:33.575Z,68.0027
2024-05-09T04:34:36.031Z,69.4721
2024-05-09T04:35:38.913Z,63.0353
2024-05-09T04:36:43.861Z,67.5087
2024-05-09T04:37:43.762Z,66.2459
2024-05-09T04:38:46.310Z,65.7016
2024-05-09T04:39:48.843Z,69.3015
2024-05-09T04:40:51.529Z,67.0662
2024-05-09T04:41:54.018Z,66.3384
2024-05-09T04:42:56.610Z,68.4874
2024-05-09T04:43:59.206Z,66.2125
2024-05-09T04:45:01.764Z,64.9342
2024-05-09T04:46:04.345Z,64.3310
2024-05-09T04:47:06.984Z,69.7944
2024-05-09T04:48:09.806Z,72.0234
2024-05-09T04:49:12.214Z,71.4713
2024-05-09T04:50:20.987Z,65.2992
2024-05-09T04:51:17.323Z,62.8114
2024-05-09T04:52:19.889Z,70.6343
2024-05-09T04:53:22.512Z,71.4451
2024-05-09T04:54:33.809Z,69.1572
2024-05-09T04:55:27.677Z,68.6677
2024-05-09T04:56:30.234Z,64.9740
2024-05-09T04:57:32.785Z,68.1825
2024-05-09T04:58:35.371Z,67.2353
2024-05-09T04:59:38.018Z,67.8724
2024-05-09T05:00:41.326Z,66.3433
2024-05-09T05:01:43.118Z,69.4186
2024-05-09T05:02:45.784Z,68.5224
2024-05-09T05:03:48.420Z,63.6006
2024-05-09T05:04:51.021Z,67.1481
2024-05-09T05:05:53.512Z,67.4770
2024-05-09T05:06:57.779Z,68.5181
2024-05-09T05:07:58.695Z,64.6348
2024-05-09T05:09:01.245Z,65.8099
2024-05-09T05:10:05.749Z,68.5100
2024-05-09T05:11:06.447Z,66.3168
2024-05-09T05:12:09.165Z,62.9658
2024-05-09T05:13:11.577Z,63.0900
2024-05-09T05:14:14.180Z,70.5992
2024-05-09T05:15:16.732Z,64.3124
2024-05-09T05:16:19.322Z,73.3232
2024-05-09T05:17:22.010Z,67.4218
2024-05-09T05:18:24.650Z,70.5642
2024-05-09T05:19:27.299Z,71.0693
2024-05-09T05:20:33.593Z,68.2454
2024-05-09T05:21:32.334Z,69.2320
2024-05-09T05:22:34.870Z,66.0474
2024-05-09T05:23:37.505Z,73.7824
2024-05-09T05:24:39.991Z,70.0333
2024-05-09T05:25:42.585Z,69.9453
2024-05-09T05:26:45.193Z,69.9580
2024-05-09T05:27:47.743Z,66.5485
2024-05-09T05:28:50.377Z,65.2711
2024-05-09T05:29:52.941Z,65.2371
2024-05-09T05:30:55.522Z,66.0545
2024-05-09T05:31:58.210Z,68.8864
2024-05-09T05:33:01.001Z,64.6918
2024-05-09T05:34:03.355Z,69.4958
2024-05-09T05:35:05.913Z,65.4498
2024-05-09T05:36:08.466Z,66.2149
2024-05-09T05:37:11.008Z,67.2372
2024-05-09T05:38:13.657Z,61.6882
2024-05-09T05:39:16.249Z,66.6333
2024-05-09T05:40:28.014Z,67.1202
2024-05-09T05:41:21.432Z,64.4797
2024-05-09T05:42:24.004Z,65.5580
2024-05-09T05:43:26.591Z,65.1846
2024-05-09T05:44:29.306Z,66.1179
2024-05-09T05:45:31.757Z,68.8911
2024-05-09T05:46:34.359Z,70.1668
2024-05-09T05:47:37.043Z,66.9904
2024-05-09T05:48:39.795Z,68.6488
2024-05-09T05:49:42.139Z,69.2643
2024-05-09T05:50:44.779Z,66.9474
2024-05-09T05:51:47.314Z,65.8391
2024-05-09T05:52:49.882Z,69.5384
2024-05-09T05:53:52.459Z,67.0336
2024-05-09T05:54:55.048Z,71.9482
2024-05-09T05:55:57.682Z,69.4179
2024-05-09T05:57:00.216Z,70.2959
2024-05-09T05:58:02.875Z,65.5907
2024-05-09T05:59:05.417Z,69.7394
2024-05-09T06:00:09.782Z,69.3161
2024-05-09T06:01:10.562Z,70.2185
2024-05-09T06:02:13.230Z,70.0995
2024-05-09T06:03:15.838Z,70.3356
2024-05-09T06:04:18.455Z,70.3915
2024-05-09T06:05:20.898Z,68.4771
2024-05-09T06:06:23.469Z,66.3749
2024-05-09T06:07:26.031Z,67.4394
2024-05-09T06:08:30.532Z,69.3264
2024-05-09T06:09:31.276Z,65.5853
2024-05-09T06:10:38.868Z,66.5404
2024-05-09T06:11:36.434Z,71.9182
2024-05-09T06:12:38.969Z,67.0087
2024-05-09T06:13:41.537Z,72.0582
2024-05-09T06:14:44.123Z,70.7694
2024-05-09T06:15:46.720Z,67.9444
2024-05-09T06:16:49.337Z,70.2882
2024-05-09T06:17:51.999Z,69.2518
2024-05-09T06:18:54.688Z,68.6391
2024-05-09T06:19:57.074Z,66.2419
2024-05-09T06:20:59.679Z,64.0340
2024-05-09T06:22:02.218Z,68.8167
2024-05-09T06:23:05.062Z,70.3738
2024-05-09T06:24:07.384Z,71.4031
2024-05-09T06:25:09.983Z,72.2083
2024-05-09T06:26:12.583Z,71.9685
2024-05-09T06:27:15.146Z,73.1995
2024-05-09T06:28:17.710Z,71.6971
2024-05-09T06:29:20.341Z,72.2535
2024-05-09T06:30:30.277Z,70.7824
2024-05-09T06:31:25.476Z,69.4190
2024-05-09T06:32:28.237Z,66.6566
2024-05-09T06:33:30.853Z,70.3022
2024-05-09T06:34:33.387Z,67.4451
2024-05-09T06:35:36.114Z,73.0112
2024-05-09T06:36:38.514Z,72.5975
2024-05-09T06:37:40.968Z,68.4695
2024-05-09T06:38:43.566Z,73.4556
2024-05-09T06:39:46.136Z,71.9210
2024-05-09T06:40:48.783Z,69.8656
2024-05-09T06:41:51.317Z,75.5166
2024-05-09T06:42:53.881Z,70.6691
2024-05-09T06:43:56.513Z,68.1334
2024-05-09T06:44:59.072Z,67.1124
2024-05-09T06:46:01.663Z,69.8779
2024-05-09T06:47:04.324Z,68.0210
2024-05-09T06:48:07.080Z,67.0126
2024-05-09T06:49:09.560Z,67.3112
2024-05-09T06:50:20.217Z,67.7090
2024-05-09T06:51:14.729Z,66.9529
2024-05-09T06:52:17.157Z,67.1794
2024-05-09T06:53:19.755Z,71.7038
2024-05-09T06:54:22.331Z,72.4061
2024-05-09T06:55:24.891Z,72.1024
2024-05-09T06:56:27.518Z,67.4150
2024-05-09T06:57:30.075Z,72.9563
2024-05-09T06:58:32.649Z,65.9710
2024-05-09T06:59:35.380Z,69.3232
2024-05-09T07:00:40.340Z,66.4963
2024-05-09T07:01:40.483Z,71.0434
2024-05-09T07:02:43.116Z,66.4810
2024-05-09T07:03:45.733Z,69.8419
2024-05-09T07:04:48.244Z,66.3791
2024-05-09T07:05:50.757Z,67.6778
2024-05-09T07:06:53.370Z,67.0788
2024-05-09T07:07:55.916Z,68.1516
2024-05-09T07:08:58.527Z,67.7123
2024-05-09T07:10:01.086Z,70.3039
2024-05-09T07:11:03.809Z,66.6108
2024-05-09T07:12:06.373Z,69.6812
2024-05-09T07:13:08.823Z,71.6918
2024-05-09T07:14:11.495Z,71.6753
2024-05-09T07:15:13.984Z,68.3335
2024-05-09T07:16:16.625Z,68.1893
2024-05-09T07:17:19.269Z,65.8043
2024-05-09T07:18:21.941Z,67.2266
2024-05-09T07:19:24.576Z,71.6202
2024-05-09T07:20:34.085Z,68.9120
2024-05-09T07:21:29.485Z,69.1930
2024-05-09T07:22:32.064Z,69.4558
2024-05-09T07:23:34.815Z,66.5039
2024-05-09T07:24:37.240Z,65.3600
2024-05-09T07:25:39.832Z,63.9326
2024-05-09T07:26:42.463Z,67.2263
2024-05-09T07:27:44.972Z,70.6364
2024-05-09T07:28:47.618Z,69.9543
2024-05-09T07:29:50.134Z,68.1672
2024-05-09T07:30:52.729Z,68.1300
2024-05-09T07:31:55.343Z,65.6555
2024-05-09T07:32:58.115Z,68.0460
2024-05-09T07:34:00.705Z,66.3477
2024-05-09T07:35:03.182Z,66.8380
2024-05-09T07:36:05.657Z,65.7547
2024-05-09T07:37:08.262Z,62.6303
2024-05-09T07:38:10.862Z,62.2407
2024-05-09T07:39:13.367Z,62.4879
2024-05-09T07:40:24.882Z,61.8874
2024-05-09T07:41:18.594Z,63.8757
2024-05-09T07:42:21.126Z,66.0987
2024-05-09T07:43:23.743Z,66.3804
2024-05-09T07:44:26.285Z,66.1146
2024-05-09T07:45:45.219Z,63.9769
2024-05-09T07:47:37.114Z,67.6019
2024-05-09T07:50:34.437Z,64.4580
2024-05-09T07:53:14.438Z,61.0832
2024-05-09T07:53:34.619Z,59.0984
2024-05-09T07:53:52.382Z,63.8580
2024-05-09T07:54:52.293Z,63.7331
2024-05-09T07:55:55.248Z,67.1912
2024-05-09T07:56:57.564Z,65.8321
2024-05-09T07:57:59.914Z,65.5990
2024-05-09T07:59:02.457Z,64.4437
2024-05-09T08:00:06.655Z,69.1416
2024-05-09T08:01:07.715Z,65.4438
2024-05-09T08:02:10.374Z,66.4574
2024-05-09T08:03:12.859Z,63.0545
2024-05-09T08:04:15.469Z,63.8553
2024-05-09T08:05:18.102Z,61.9609
2024-05-09T08:06:20.538Z,60.3023
2024-05-09T08:07:23.192Z,67.0005
2024-05-09T08:08:25.722Z,65.5968
2024-05-09T08:09:28.339Z,67.5412
2024-05-09T08:10:30.960Z,58.4049
2024-05-09T08:11:33.504Z,61.0496
2024-05-09T08:12:36.099Z,59.6804
2024-05-09T08:13:38.725Z,59.9332
2024-05-09T08:14:41.213Z,63.0698
2024-05-09T08:15:43.896Z,61.0747
2024-05-09T08:16:46.390Z,62.9327
2024-05-09T08:17:49.063Z,66.2267
2024-05-09T08:18:51.671Z,62.7019
2024-05-09T08:19:54.136Z,60.4246
2024-05-09T08:20:56.719Z,55.7516
2024-05-09T08:21:59.341Z,62.9500
2024-05-09T08:23:01.887Z,63.1936
2024-05-09T08:24:04.485Z,84.2224
2024-05-09T08:25:07.076Z,152.8133
2024-05-09T08:26:09.639Z,234.4355
2024-05-09T08:27:12.242Z,323.0294
2024-05-09T08:28:14.852Z,441.0603
2024-05-09T08:29:17.407Z,477.2503
2024-05-09T08:30:25.304Z,522.0601
2024-05-09T08:31:22.792Z,586.0128
2024-05-09T08:32:25.185Z,441.3805
2024-05-09T08:33:27.835Z,594.1803
2024-05-09T08:34:30.358Z,535.3773
2024-05-09T08:35:32.934Z,502.6142
2024-05-09T08:36:35.513Z,463.8286
2024-05-09T08:37:40.483Z,475.9503
2024-05-09T08:38:40.656Z,471.3891
2024-05-09T08:39:43.258Z,602.0662
2024-05-09T08:40:45.898Z,865.7783
2024-05-09T08:41:48.398Z,719.1604
2024-05-09T08:42:51.003Z,541.1801
2024-05-09T08:43:53.562Z,522.6185
2024-05-09T08:44:56.133Z,446.6790
2024-05-09T08:45:58.766Z,460.0646
2024-05-09T08:47:01.385Z,546.4260
2024-05-09T08:48:04.070Z,542.8516
2024-05-09T08:49:06.642Z,557.2335
2024-05-09T08:50:13.783Z,583.0773
2024-05-09T08:51:11.641Z,523.8736
2024-05-09T08:52:14.229Z,530.4203
2024-05-09T08:53:16.822Z,565.7592
2024-05-09T08:54:19.395Z,552.1245
2024-05-09T08:55:21.994Z,561.4807
2024-05-09T08:56:24.600Z,569.5619
2024-05-09T08:57:27.228Z,610.4755
2024-05-09T08:58:29.721Z,631.6903
2024-05-09T08:59:32.340Z,614.1516
2024-05-09T09:00:37.310Z,567.0906
2024-05-09T09:01:38.136Z,583.4088
2024-05-09T09:02:40.250Z,603.5032
2024-05-09T09:03:42.848Z,624.7889
2024-05-09T09:04:45.295Z,658.6776
2024-05-09T09:05:47.839Z,661.5853
2024-05-09T09:06:51.453Z,645.8832
2024-05-09T09:07:52.975Z,607.3613
2024-05-09T09:08:55.550Z,575.4094
2024-05-09T09:09:58.154Z,563.5330
2024-05-09T09:11:00.761Z,532.0328
2024-05-09T09:12:03.327Z,564.7593
2024-05-09T09:13:05.932Z,597.7902
2024-05-09T09:14:08.484Z,590.3031
2024-05-09T09:15:11.076Z,594.3974
2024-05-09T09:16:13.750Z,548.3467
2024-05-09T09:17:16.338Z,549.8914
2024-05-09T09:18:19.292Z,509.1543
2024-05-09T09:19:21.581Z,545.7534
2024-05-09T09:20:29.402Z,479.8102
2024-05-09T09:21:26.773Z,453.6833
2024-05-09T09:22:29.164Z,443.5300
2024-05-09T09:23:31.880Z,426.4259
2024-05-09T09:24:34.373Z,456.5877
2024-05-09T09:25:36.920Z,428.5636
2024-05-09T09:26:39.503Z,423.4691
2024-05-09T09:27:42.167Z,414.6537
2024-05-09T09:28:44.669Z,427.8975
2024-05-09T09:29:47.293Z,401.8430
2024-05-09T09:30:49.905Z,460.1528
2024-05-09T09:31:52.445Z,458.8480
2024-05-09T09:32:55.123Z,420.8833
2024-05-09T09:33:57.936Z,414.5331
2024-05-09T09:35:00.237Z,469.7997
2024-05-09T09:36:02.753Z,457.8948
2024-05-09T09:37:05.404Z,424.4082
2024-05-09T09:38:07.992Z,453.3459
2024-05-09T09:39:10.560Z,463.8160
2024-05-09T09:40:13.468Z,478.8716
2024-05-09T09:41:15.758Z,457.6976
2024-05-09T09:42:18.265Z,442.7445
2024-05-09T09:43:21.177Z,426.3234
2024-05-09T09:44:23.412Z,461.4424
2024-05-09T09:45:26.053Z,467.6036
2024-05-09T09:46:28.740Z,456.7934
2024-05-09T09:47:31.300Z,445.0965
2024-05-09T09:48:34.080Z,480.3583
2024-05-09T09:49:36.411Z,455.4109
2024-05-09T09:50:38.965Z,444.0216
2024-05-09T09:51:41.608Z,460.5536
2024-05-09T09:52:44.123Z,476.9279
2024-05-09T09:53:46.748Z,497.4688
2024-05-09T09:54:49.381Z,489.7594
2024-05-09T09:55:51.897Z,481.0197
2024-05-09T09:56:54.453Z,481.1791
2024-05-09T09:57:57.112Z,485.1216
2024-05-09T09:58:59.621Z,471.3378
2024-05-09T10:00:03.119Z,462.0344
2024-05-09T10:01:04.986Z,472.0322
2024-05-09T10:02:07.600Z,480.6255
2024-05-09T10:03:10.133Z,481.2223
2024-05-09T10:04:12.692Z,438.9864
2024-05-09T10:05:15.160Z,426.6079
2024-05-09T10:06:17.681Z,412.6113
2024-05-09T10:07:20.354Z,395.4339
2024-05-09T10:08:22.858Z,412.0225
2024-05-09T10:09:25.473Z,411.7863
2024-05-09T10:10:32.317Z,403.0457
2024-05-09T10:11:31.679Z,412.4582
2024-05-09T10:12:33.267Z,443.4882
2024-05-09T10:13:35.863Z,437.5047
2024-05-09T10:14:38.342Z,409.5715
2024-05-09T10:15:40.966Z,387.5505
2024-05-09T10:16:43.528Z,375.9667
2024-05-09T10:17:46.150Z,389.9379
2024-05-09T10:18:48.861Z,392.9942
2024-05-09T10:19:51.389Z,377.8297
2024-05-09T10:20:53.826Z,386.8536
2024-05-09T10:21:56.427Z,358.9538
2024-05-09T10:22:59.055Z,359.8236
2024-05-09T10:24:01.583Z,333.0739
2024-05-09T10:25:05.108Z,345.2579
2024-05-09T10:26:06.748Z,362.9497
2024-05-09T10:27:09.400Z,352.6035
2024-05-09T10:28:12.081Z,343.8340
2024-05-09T10:29:14.517Z,363.6371
2024-05-09T10:30:25.816Z,393.9227
2024-05-09T10:31:19.683Z,417.5887
2024-05-09T10:32:22.363Z,405.9998
2024-05-09T10:33:24.987Z,404.3291
2024-05-09T10:34:27.632Z,372.8807
2024-05-09T10:35:30.023Z,348.9830
2024-05-09T10:36:32.644Z,330.0341
2024-05-09T10:37:35.236Z,311.0295
2024-05-09T10:38:37.748Z,356.5291
2024-05-09T10:39:40.359Z,354.1468
2024-05-09T10:40:42.964Z,345.7571
2024-05-09T10:41:45.493Z,356.9394
2024-05-09T10:42:48.183Z,333.1994
2024-05-09T10:43:50.705Z,330.8498
2024-05-09T10:44:53.338Z,342.0909
2024-05-09T10:45:55.856Z,346.1574
2024-05-09T10:46:58.437Z,355.3702
2024-05-09T10:48:01.163Z,349.9204
2024-05-09T10:49:06.294Z,326.9730
2024-05-09T10:50:12.710Z,330.1734
2024-05-09T10:51:08.744Z,360.6870
2024-05-09T10:52:11.350Z,360.0119
2024-05-09T10:53:13.895Z,347.2686
2024-05-09T10:54:16.509Z,327.9949
2024-05-09T10:55:19.285Z,315.7828
2024-05-09T10:56:21.663Z,315.0075
2024-05-09T10:57:24.230Z,311.0822
2024-05-09T10:58:26.805Z,291.2803
2024-05-09T10:59:29.400Z,317.5280
2024-05-09T11:00:35.863Z,338.5707
2024-05-09T11:01:34.639Z,340.1392
2024-05-09T11:02:37.291Z,339.7920
2024-05-09T11:03:40.127Z,334.5377
2024-05-09T11:04:42.485Z,341.6386
2024-05-09T11:05:45.094Z,336.9593
2024-05-09T11:06:47.532Z,337.7750
2024-05-09T11:07:50.071Z,337.5520
2024-05-09T11:08:52.649Z,327.2673
2024-05-09T11:09:55.301Z,335.1137
2024-05-09T11:10:57.855Z,326.8949
2024-05-09T11:12:00.463Z,329.7363
2024-05-09T11:13:03.048Z,331.8257
2024-05-09T11:14:05.565Z,303.9576
2024-05-09T11:15:08.180Z,316.8316
2024-05-09T11:16:10.801Z,311.2473
2024-05-09T11:17:13.322Z,311.6903
2024-05-09T11:18:16.063Z,305.9045
2024-05-09T11:19:18.673Z,303.6404
2024-05-09T11:20:26.942Z,313.3617
2024-05-09T11:21:23.652Z,311.7548
2024-05-09T11:22:26.289Z,298.2906
2024-05-09T11:23:28.804Z,315.1392
2024-05-09T11:24:31.407Z,311.2702
2024-05-09T11:25:33.975Z,306.6331
2024-05-09T11:26:36.612Z,299.0294
2024-05-09T11:27:39.184Z,313.0978
2024-05-09T11:28:41.734Z,317.9702
2024-05-09T11:29:44.315Z,318.9734
2024-05-09T11:30:46.983Z,306.4180
2024-05-09T11:31:49.668Z,313.8262
2024-05-09T11:32:52.298Z,314.4232
2024-05-09T11:33:54.846Z,320.7747
2024-05-09T11:34:57.244Z,307.1239
2024-05-09T11:35:59.823Z,308.8043
2024-05-09T11:37:02.494Z,301.8028
2024-05-09T11:38:04.995Z,298.2744
2024-05-09T11:39:07.593Z,291.2641
2024-05-09T11:40:16.814Z,287.6976
2024-05-09T11:41:12.774Z,300.0850
2024-05-09T11:42:15.326Z,291.1085
2024-05-09T11:43:18.053Z,293.5443
2024-05-09T11:44:20.523Z,297.3926
2024-05-09T11:45:23.148Z,289.4426
2024-05-09T11:46:25.819Z,294.9336
2024-05-09T11:47:28.289Z,298.7330
2024-05-09T11:48:31.148Z,286.0262
2024-05-09T11:49:33.563Z,284.6219
2024-05-09T11:50:36.444Z,286.7944
2024-05-09T11:51:38.637Z,280.8500
2024-05-09T11:52:41.164Z,284.2657
2024-05-09T11:53:43.762Z,288.9493
2024-05-09T11:54:46.381Z,281.0306
2024-05-09T11:55:48.946Z,281.9797
2024-05-09T11:56:51.604Z,274.6252
2024-05-09T11:57:54.097Z,277.0221
2024-05-09T11:58:56.664Z,268.1505
2024-05-09T11:59:59.249Z,267.8098
2024-05-09T12:01:01.979Z,264.2922
2024-05-09T12:02:04.589Z,266.5687
2024-05-09T12:03:07.099Z,272.3410
2024-05-09T12:04:09.699Z,264.4406
2024-05-09T12:05:12.246Z,267.4162
2024-05-09T12:06:14.769Z,275.5852
2024-05-09T12:07:17.439Z,272.2680
2024-05-09T12:08:19.934Z,266.0227
2024-05-09T12:09:22.494Z,267.9007
2024-05-09T12:10:32.125Z,264.8766
2024-05-09T12:11:27.703Z,265.6936
2024-05-09T12:12:30.302Z,252.9759
2024-05-09T12:13:32.957Z,256.2064
2024-05-09T12:14:35.447Z,264.1264
2024-05-09T12:15:38.879Z,260.9313
2024-05-09T12:16:40.653Z,246.6336
2024-05-09T12:17:43.288Z,251.6629
2024-05-09T12:18:45.904Z,248.0905
2024-05-09T12:19:48.419Z,241.9703
2024-05-09T12:20:50.949Z,251.8860
2024-05-09T12:21:53.553Z,255.4101
2024-05-09T12:22:56.099Z,242.4399
2024-05-09T12:23:58.679Z,235.9471
2024-05-09T12:25:01.316Z,231.5376
2024-05-09T12:26:03.868Z,243.2806
2024-05-09T12:27:06.457Z,225.1185
2024-05-09T12:28:09.198Z,226.1387
2024-05-09T12:29:11.622Z,221.9249
2024-05-09T12:30:20.729Z,224.9246
2024-05-09T12:31:16.807Z,227.2127
2024-05-09T12:32:19.420Z,237.6888